This is the latest recevied weather packets stored in our database for station/object PY5KT-13. If no packets are shown the sender has not sent any weather packets the latest 10 day(s).
| Time | Temp. | Humidity | Pressure | Rain* | Wind** | Luminosity | Snow |
|---|---|---|---|---|---|---|---|
| 1777999866 | 29.44° C | 45% | 1022.7 hPa | 0 mm | - | 540 W/m² | - |
| 1777999564 | 26.67° C | 51% | 1022.8 hPa | 0 mm | - | 511 W/m² | - |
| 1777999263 | 27.22° C | 50% | 1022.9 hPa | 0 mm | - | 139 W/m² | - |
| 1777998961 | 26.67° C | 50% | 1023 hPa | 0 mm | - | 121 W/m² | - |
| 1777998660 | 28.33° C | 47% | 1022.9 hPa | 0 mm | - | 95 W/m² | - |
| 1777998358 | 29.44° C | 46% | 1022.9 hPa | 0 mm | - | 429 W/m² | - |
| 1777998056 | 28.89° C | 46% | 1023 hPa | 0 mm | - | 560 W/m² | - |
| 1777997755 | 30.56° C | 44% | 1023.1 hPa | 0 mm | - | 249 W/m² | - |
| 1777997453 | 30° C | 45% | 1023.1 hPa | 0 mm | - | 586 W/m² | - |
| 1777997152 | 29.44° C | 45% | 1023.2 hPa | 0 mm | - | 469 W/m² | - |
| 1777996850 | 28.89° C | 47% | 1023.3 hPa | 0 mm | - | 583 W/m² | - |
| 1777996549 | 28.89° C | 48% | 1023.3 hPa | 0 mm | - | 572 W/m² | - |
| 1777996247 | 27.78° C | 51% | 1023.4 hPa | 0 mm | - | 589 W/m² | - |
| 1777995945 | 28.89° C | 48% | 1023.5 hPa | 0 mm | - | 590 W/m² | - |
| 1777995643 | 28.89° C | 48% | 1023.5 hPa | 0 mm | - | 593 W/m² | - |
| 1777995341 | 28.33° C | 48% | 1023.5 hPa | 0 mm | - | 580 W/m² | - |
| 1777995039 | 27.78° C | 49% | 1023.6 hPa | 0 mm | - | 577 W/m² | - |
| 1777994737 | 28.89° C | 48% | 1023.6 hPa | 0 mm | - | 509 W/m² | - |
| 1777994436 | 28.33° C | 52% | 1023.7 hPa | 0 mm | - | 589 W/m² | - |
| 1777994134 | 28.89° C | 52% | 1023.7 hPa | 0 mm | - | 584 W/m² | - |
| 1777993833 | 27.78° C | 57% | 1023.7 hPa | 0 mm | - | 598 W/m² | - |
| 1777993531 | 27.78° C | 56% | 1023.8 hPa | 0 mm | - | 107 W/m² | - |
| 1777993229 | 26.67° C | 59% | 1023.9 hPa | 0 mm | - | 484 W/m² | - |
| 1777992928 | 27.78° C | 55% | 1023.9 hPa | 0 mm | - | 115 W/m² | - |
| 1777992626 | 27.22° C | 58% | 1024 hPa | 0 mm | - | 445 W/m² | - |
* Rain latest hour (hover to see other rain measurements)
** Current wind speed in m/s (hover to see current wind gust speed)